Time;durP1;ratioP1;P1;durP2;ratioP2;P2;SDS_P1;SDS_P2;PMS_P1;PMS_P2;Temp;Humidity;BMP_temperature;BMP_pressure;BME280_temperature;BME280_humidity;BME280_pressure;Samples;Min_cycle;Max_cycle;Signal;HPM_P1;HPM_P2
2022/05/06 00:00:40;;;;;;;5.53;3.33;;;;;;;11.32;100.00;100327.94;10459109;28;20550;-72
2022/05/06 00:05:41;;;;;;;7.72;3.50;;;;;;;11.35;100.00;100339.03;10461138;28;20098;-70
2022/05/06 00:10:41;;;;;;;7.55;2.80;;;;;;;9.83;100.00;100092.97;10461365;28;20060;-70
2022/05/06 00:15:42;;;;;;;6.97;2.30;;;;;;;11.30;100.00;100330.75;10460188;28;20227;-73
2022/05/06 00:20:43;;;;;;;3.70;1.85;;;;;;;11.36;100.00;100350.50;10460534;28;20079;-70
2022/05/06 00:25:44;;;;;;;6.00;1.75;;;;;;;10.61;100.00;100237.47;10460869;28;20577;-70
2022/05/06 00:30:44;;;;;;;6.78;1.83;;;;;;;10.40;100.00;100211.47;10458445;28;20049;-71
2022/05/06 00:35:45;;;;;;;3.20;1.95;;;;;;;11.28;100.00;100363.84;10458966;28;20045;-71
2022/05/06 00:40:46;;;;;;;4.65;2.03;;;;;;;10.11;100.00;100187.28;10460136;28;20064;-71
2022/05/06 00:45:53;;;;;;;6.15;2.60;;;;;;;11.01;100.00;100352.63;10458342;28;20462;-71
2022/05/06 00:50:57;;;;;;;5.53;2.13;;;;;;;10.87;100.00;100324.09;10459024;28;20183;-71
2022/05/06 00:55:58;;;;;;;;;;;;;;;11.14;100.00;100378.69;10458619;28;20067;-70
2022/05/06 01:01:02;;;;;;;5.93;2.00;;;;;;;10.88;100.00;100378.91;10458639;28;19920;-72
2022/05/06 01:06:07;;;;;;;;;;;;;;;10.87;100.00;100386.03;10458958;28;20048;-72
2022/05/06 01:11:13;;;;;;;5.65;2.35;;;;;;;9.73;100.00;100246.19;10458716;28;20009;-75
2022/05/06 01:16:14;;;;;;;5.15;2.22;;;;;;;10.36;100.00;100353.56;10457407;28;20048;-72
2022/05/06 01:21:22;;;;;;;2.65;1.40;;;;;;;10.38;100.00;100372.81;10458418;28;20468;-71
2022/05/06 01:26:49;;;;;;;4.90;1.85;;;;;;;10.42;100.00;100398.03;10456908;28;20515;-70
2022/05/06 01:31:50;;;;;;;3.45;1.70;;;;;;;10.16;100.00;100360.16;10456155;28;20044;-70
2022/05/06 01:36:53;;;;;;;4.05;1.65;;;;;;;10.44;100.00;100419.09;10456994;28;20041;-70
2022/05/06 01:41:56;;;;;;;3.22;1.90;;;;;;;10.39;100.00;100435.53;10455746;28;20068;-71
2022/05/06 01:47:01;;;;;;;4.43;1.55;;;;;;;9.98;100.00;100400.94;10456767;28;20052;-72
2022/05/06 01:52:03;;;;;;;4.90;1.70;;;;;;;9.82;100.00;100403.56;10456703;28;20114;-71
2022/05/06 01:57:04;;;;;;;2.13;1.58;;;;;;;9.60;100.00;100394.34;10456574;28;20064;-71
2022/05/06 02:02:05;;;;;;;2.33;1.50;;;;;;;9.77;100.00;100438.50;10455744;28;20098;-72
2022/05/06 02:07:06;;;;;;;1.88;1.30;;;;;;;9.99;100.00;100479.56;10456319;28;20094;-71
2022/05/06 02:12:07;;;;;;;3.47;1.33;;;;;;;9.21;100.00;100394.00;10455539;28;20041;-70
2022/05/06 02:17:08;;;;;;;1.90;1.30;;;;;;;9.24;100.00;100394.53;10456228;28;20037;-70
2022/05/06 02:22:09;;;;;;;3.63;1.88;;;;;;;9.43;100.00;100458.94;10454945;28;20045;-70
2022/05/06 02:27:12;;;;;;;2.67;1.75;;;;;;;9.57;100.00;100498.09;10455926;28;20075;-71
2022/05/06 02:37:31;;;;;;;5.35;2.42;;;;;;;9.32;100.00;100491.84;10413339;28;20052;-71
2022/05/06 02:42:32;;;;;;;7.90;2.60;;;;;;;8.45;100.00;100369.84;10413115;28;20041;-71
2022/05/06 02:47:33;;;;;;;3.03;2.25;;;;;;;8.75;100.00;100438.44;10412748;28;20098;-76
2022/05/06 02:52:34;;;;;;;3.70;2.65;;;;;;;8.46;100.00;100405.09;10413143;28;20095;-72
2022/05/06 02:57:34;;;;;;;4.45;2.90;;;;;;;9.32;100.00;100561.59;10413698;28;20045;-70
2022/05/06 03:02:35;;;;;;;6.63;3.30;;;;;;;8.96;100.00;100515.75;10414017;28;20037;-74
2022/05/06 03:07:37;;;;;;;6.25;3.53;;;;;;;9.28;100.00;100581.44;10413718;28;20068;-71
2022/05/06 03:12:42;;;;;;;5.05;3.30;;;;;;;9.28;100.00;100585.94;10449419;28;20048;-71
2022/05/06 03:17:43;;;;;;;4.85;3.08;;;;;;;8.82;100.00;100518.94;10453091;28;20044;-79
2022/05/06 03:22:50;;;;;;;4.82;3.00;;;;;;;8.24;100.00;100436.31;10453647;28;20044;-72
2022/05/06 03:27:59;;;;;;;4.03;2.92;;;;;;;9.23;100.00;100601.44;10452878;28;20045;-73
2022/05/06 03:33:00;;;;;;;7.00;3.30;;;;;;;8.87;100.00;100556.41;10447756;28;20068;-72
2022/05/06 03:38:01;;;;;;;4.35;2.75;;;;;;;9.06;100.00;100587.22;10451331;28;20087;-73
2022/05/06 03:43:02;;;;;;;4.20;2.75;;;;;;;8.19;100.00;100449.16;10451644;28;20125;-77
2022/05/06 03:48:04;;;;;;;4.47;2.67;;;;;;;9.16;100.00;100613.66;10451204;28;20033;-71
2022/05/06 03:53:06;;;;;;;4.18;2.50;;;;;;;8.49;100.00;100507.22;10450481;28;20060;-70
2022/05/06 03:58:07;;;;;;;3.95;2.08;;;;;;;9.17;100.00;100617.97;10452933;28;20044;-71
2022/05/06 04:03:08;;;;;;;5.68;2.25;;;;;;;8.88;100.00;100601.31;10459261;28;20041;-73
2022/05/06 04:08:08;;;;;;;5.10;2.38;;;;;;;8.41;100.00;100529.16;10437531;28;20040;-71
2022/05/06 04:13:09;;;;;;;4.10;2.50;;;;;;;8.56;100.00;100561.25;10419791;28;20545;-72
2022/05/06 04:18:10;;;;;;;4.78;2.63;;;;;;;8.94;100.00;100634.28;10419019;28;20132;-71
2022/05/06 04:23:30;;;;;;;4.15;2.47;;;;;;;8.60;100.00;100608.47;10429118;28;20136;-72
2022/05/06 04:28:31;;;;;;;4.00;2.70;;;;;;;8.23;100.00;100564.34;10433510;28;20045;-71
2022/05/06 04:33:32;;;;;;;3.92;2.50;;;;;;;8.86;100.00;100673.97;10438518;28;20041;-72
2022/05/06 04:38:33;;;;;;;3.83;2.25;;;;;;;8.71;100.00;100656.91;10459730;28;20057;-72
2022/05/06 04:43:34;;;;;;;9.77;2.10;;;;;;;7.90;100.00;100531.34;10444923;28;20432;-72
2022/05/06 04:48:35;;;;;;;5.18;1.98;;;;;;;8.30;100.00;100604.28;10457031;28;20051;-73
2022/05/06 04:53:36;;;;;;;4.40;2.25;;;;;;;7.23;100.00;100438.09;10430149;28;20523;-72
2022/05/06 04:58:37;;;;;;;5.40;2.08;;;;;;;8.79;100.00;100688.78;10417028;28;20052;-76
2022/05/06 05:03:38;;;;;;;4.60;2.20;;;;;;;8.72;100.00;100699.13;10417821;28;20491;-74
2022/05/06 05:08:39;;;;;;;5.32;2.20;;;;;;;8.67;100.00;100698.72;10416572;28;20038;-72
2022/05/06 05:13:40;;;;;;;7.40;2.30;;;;;;;8.61;100.00;100707.25;10416369;28;20072;-73
2022/05/06 05:18:41;;;;;;;5.07;2.70;;;;;;;8.19;100.00;100655.56;10416845;28;20061;-72
2022/05/06 05:23:41;;;;;;;5.05;2.13;;;;;;;8.58;100.00;100712.84;10416720;28;20110;-73
2022/05/06 05:28:42;;;;;;;3.25;2.03;;;;;;;8.61;100.00;100712.56;10415906;28;20045;-72
2022/05/06 05:33:43;;;;;;;3.88;2.30;;;;;;;8.65;100.00;100716.59;10416340;28;20045;-72
2022/05/06 05:38:44;;;;;;;5.88;2.17;;;;;;;8.48;100.00;100706.78;10415979;28;20041;-73
2022/05/06 05:49:04;;;;;;;9.55;2.13;;;;;;;8.74;100.00;100736.09;10416185;28;20041;-76
2022/05/06 05:54:04;;;;;;;2.42;1.55;;;;;;;8.73;100.00;100732.56;10415628;28;20065;-74
2022/05/06 05:59:05;;;;;;;3.33;1.63;;;;;;;8.67;100.00;100730.50;10413206;28;20504;-72
2022/05/06 06:04:06;;;;;;;3.17;1.40;;;;;;;8.69;100.00;100732.03;10414373;28;20151;-75
2022/05/06 06:09:07;;;;;;;2.88;1.15;;;;;;;8.57;100.00;100725.25;10414794;28;20045;-76
2022/05/06 06:14:08;;;;;;;3.35;0.93;;;;;;;7.56;100.00;100576.00;10414713;28;20056;-73
2022/05/06 06:19:08;;;;;;;2.10;1.25;;;;;;;8.53;100.00;100745.09;10414307;28;20045;-71
2022/05/06 06:24:09;;;;;;;3.13;1.00;;;;;;;8.65;100.00;100770.41;10414372;28;20041;-72
2022/05/06 06:29:10;;;;;;;2.75;1.20;;;;;;;8.00;100.00;100663.56;10413905;28;20068;-72
2022/05/06 06:34:11;;;;;;;1.95;1.00;;;;;;;8.60;100.00;100801.78;10391541;28;20456;-72
2022/05/06 06:39:12;;;;;;;2.63;1.00;;;;;;;7.92;100.00;100669.56;10413624;28;20037;-69
2022/05/06 06:44:14;;;;;;;17.98;0.98;;;;;;;8.61;100.00;100790.19;10412728;28;20095;-72
2022/05/06 06:49:18;;;;;;;1.85;1.05;;;;;;;7.78;100.00;100633.00;10412456;28;20041;-71
2022/05/06 06:54:19;;;;;;;1.48;0.68;;;;;;;7.77;100.00;100637.44;10412871;28;20065;-73
2022/05/06 06:59:19;;;;;;;1.88;0.90;;;;;;;8.66;100.00;100806.50;10413450;28;20040;-76
2022/05/06 07:04:20;;;;;;;2.65;0.80;;;;;;;8.56;100.00;100800.41;10413058;28;20042;-72
2022/05/06 07:14:40;;;;;;;3.17;0.88;;;;;;;8.10;100.00;100748.22;10412668;28;20401;-74
2022/05/06 07:19:41;;;;;;;2.97;0.98;;;;;;;8.60;100.00;100833.56;10413134;28;20041;-73
2022/05/06 07:24:42;;;;;;;5.78;0.80;;;;;;;7.72;100.00;100703.16;10411540;28;20042;-75
2022/05/06 07:29:43;;;;;;;2.22;0.90;;;;;;;8.01;100.00;100781.66;10412462;28;20489;-77
2022/05/06 07:34:43;;;;;;;2.75;0.80;;;;;;;8.30;100.00;100836.38;10413058;28;20053;-71
2022/05/06 07:39:44;;;;;;;1.23;0.80;;;;;;;8.12;100.00;100830.94;10412771;28;20064;-72
2022/05/06 07:44:45;;;;;;;6.78;2.30;;;;;;;8.16;100.00;100849.03;10420022;28;20404;-73
2022/05/06 07:49:46;;;;;;;7.47;5.22;;;;;;;7.91;100.00;100820.50;10419982;28;20045;-74
2022/05/06 07:54:47;;;;;;;6.50;3.53;;;;;;;8.08;100.00;100867.44;10420028;28;20424;-71
2022/05/06 07:59:48;;;;;;;10.35;5.47;;;;;;;8.01;100.00;100869.78;10419352;28;20088;-77
2022/05/06 08:04:49;;;;;;;7.43;3.85;;;;;;;7.84;100.00;100872.28;10419457;28;20068;-78
2022/05/06 08:09:50;;;;;;;4.38;1.70;;;;;;;7.92;100.00;100883.84;10419900;28;20092;-72
2022/05/06 08:14:51;;;;;;;4.57;1.55;;;;;;;6.99;100.00;100742.31;10418845;28;20067;-76
2022/05/06 08:19:52;;;;;;;4.25;2.50;;;;;;;7.70;100.00;100862.94;10418364;28;20068;-73
2022/05/06 08:24:52;;;;;;;4.63;2.20;;;;;;;7.74;100.00;100881.03;10418286;28;20068;-74
2022/05/06 08:29:53;;;;;;;3.05;1.30;;;;;;;7.89;100.00;100904.44;10418841;28;20045;-74
2022/05/06 08:34:54;;;;;;;4.43;1.60;;;;;;;7.87;100.00;100906.41;10417956;28;20049;-74
2022/05/06 08:39:55;;;;;;;8.15;1.50;;;;;;;7.91;100.00;100913.09;10409282;28;20481;-74
2022/05/06 08:55:35;;;;;;;2.33;1.27;;;;;;;7.78;100.00;100863.94;10417055;28;20058;-74
2022/05/06 09:00:36;;;;;;;4.22;1.40;;;;;;;7.13;100.00;100770.16;10416889;28;20041;-77
2022/05/06 09:06:01;;;;;;;4.50;1.42;;;;;;;8.16;100.00;100922.31;10416979;28;20037;-75
2022/05/06 09:11:09;;;;;;;2.88;1.35;;;;;;;7.74;100.00;100848.47;10417488;28;20041;-74
2022/05/06 09:16:40;;;;;;;2.33;1.10;;;;;;;8.26;100.00;100917.03;10417121;28;20450;-75
2022/05/06 09:22:17;;;;;;;2.00;1.50;;;;;;;7.67;100.00;100815.63;10416021;28;20042;-74
2022/05/06 09:27:21;;;;;;;3.05;1.10;;;;;;;7.85;100.00;100836.94;10416553;28;20088;-75
2022/05/06 09:32:22;;;;;;;2.33;1.33;;;;;;;8.42;100.00;100918.16;10415556;28;20041;-72
2022/05/06 09:37:30;;;;;;;5.32;1.73;;;;;;;8.52;100.00;100917.31;10416573;28;20037;-75
2022/05/06 09:42:32;;;;;;;2.60;1.50;;;;;;;8.44;100.00;100904.81;10415825;28;20073;-75
2022/05/06 09:47:36;;;;;;;3.85;2.95;;;;;;;8.06;100.00;100845.56;10406896;28;20064;-73
2022/05/06 09:52:37;;;;;;;6.80;3.40;;;;;;;8.62;100.00;100950.78;10373947;28;20084;-74
2022/05/06 09:57:38;;;;;;;6.13;3.35;;;;;;;7.69;100.00;100818.97;10373301;28;20128;-76
2022/05/06 10:02:39;;;;;;;4.07;2.40;;;;;;;7.69;100.00;100842.78;10394040;28;20140;-77
2022/05/06 10:07:43;;;;;;;2.90;2.00;;;;;;;7.60;100.00;100860.28;10407860;28;20151;-72
2022/05/06 10:12:52;;;;;;;5.78;2.55;;;;;;;8.21;100.00;100967.72;10409492;28;20034;-75
2022/05/06 10:18:07;;;;;;;4.05;2.50;;;;;;;8.05;100.00;100951.53;10407439;28;20049;-75
2022/05/06 10:23:11;;;;;;;4.60;1.67;;;;;;;7.25;100.00;100832.50;10409425;28;20044;-77
2022/05/06 10:34:08;;;;;;;2.35;1.40;;;;;;;8.06;100.00;100988.47;10407757;28;20049;-73
2022/05/06 10:39:37;;;;;;;4.57;2.42;;;;;;;7.91;100.00;100966.00;10408360;28;20041;-73
2022/05/06 10:44:39;;;;;;;7.45;2.63;;;;;;;7.99;100.00;100989.97;10407304;28;20783;-74
2022/05/06 10:49:39;;;;;;;4.60;2.10;;;;;;;7.90;100.00;100999.56;10409137;28;20034;-75
2022/05/06 10:54:49;;;;;;;3.15;1.60;;;;;;;6.11;100.00;100732.34;10408530;28;20061;-76
2022/05/06 10:59:58;;;;;;;7.88;2.35;;;;;;;7.57;100.00;100953.09;10386751;28;20535;-74
2022/05/06 11:05:03;;;;;;;4.80;1.73;;;;;;;7.38;100.00;100943.25;10408823;28;20489;-75
2022/05/06 11:10:12;;;;;;;4.00;2.10;;;;;;;7.60;100.00;100978.41;10412120;28;20045;-72
2022/05/06 11:15:15;;;;;;;4.20;2.03;;;;;;;6.21;100.00;100751.72;10414897;28;20533;-73
2022/05/06 11:20:26;;;;;;;4.00;2.25;;;;;;;6.27;100.00;100759.09;10416345;28;20041;-73
2022/05/06 11:25:31;;;;;;;3.67;1.80;;;;;;;7.52;100.00;100982.56;10416899;28;20041;-79
2022/05/06 11:30:32;;;;;;;;;;;;;;;7.71;100.00;101004.78;10412162;28;20504;-73
2022/05/06 11:35:40;;;;;;;7.55;2.30;;;;;;;7.56;100.00;100996.34;10413353;28;19917;-71
2022/05/06 11:40:41;;;;;;;3.63;1.90;;;;;;;6.25;100.00;100805.03;10414290;28;20040;-71
2022/05/06 11:51:03;;;;;;;3.28;1.75;;;;;;;7.28;100.00;101001.38;10417652;28;20045;-72
2022/05/06 11:56:04;;;;;;;21.10;8.88;;;;;;;6.66;100.00;100899.22;10417071;28;20061;-73
2022/05/06 12:01:05;;;;;;;5.35;3.20;;;;;;;7.14;100.00;100955.94;10418704;28;20088;-70
2022/05/06 12:06:08;;;;;;;4.55;2.20;;;;;;;7.37;100.00;100983.91;10418861;28;20048;-75
2022/05/06 12:11:09;;;;;;;4.07;1.95;;;;;;;7.61;100.00;101027.69;10406285;28;20040;-75
2022/05/06 12:16:12;;;;;;;5.03;1.77;;;;;;;7.54;100.00;101016.81;10403980;28;20042;-74
2022/05/06 12:21:18;;;;;;;6.37;2.03;;;;;;;7.58;100.00;101018.22;10415238;28;20116;-70
2022/05/06 12:26:32;;;;;;;4.82;2.30;;;;;;;7.70;100.00;101027.75;10403333;28;20504;-72
2022/05/06 12:31:34;;;;;;;4.50;2.47;;;;;;;7.69;100.00;101012.84;10416875;28;20175;-73
2022/05/06 12:36:36;;;;;;;4.13;2.55;;;;;;;6.82;100.00;100865.28;10416232;28;20064;-74
2022/05/06 12:41:37;;;;;;;3.92;2.17;;;;;;;7.69;100.00;101033.19;10416652;28;20122;-73
2022/05/06 12:46:38;;;;;;;2.47;1.80;;;;;;;7.32;100.00;100986.09;10413701;28;20123;-72
2022/05/06 12:51:40;;;;;;;3.00;1.77;;;;;;;7.62;100.00;101050.53;10411768;28;20064;-70
2022/05/06 12:56:41;;;;;;;4.93;2.45;;;;;;;7.60;100.00;101063.03;10409990;28;20049;-69
2022/05/06 13:01:42;;;;;;;5.32;2.45;;;;;;;6.70;100.00;100920.91;10411329;28;20056;-73
2022/05/06 13:06:43;;;;;;;5.18;2.70;;;;;;;7.41;100.00;101039.97;10405071;28;20057;-71
2022/05/06 13:11:44;;;;;;;8.52;4.20;;;;;;;7.53;100.00;101057.44;10415393;28;20034;-71
2022/05/06 13:16:44;;;;;;;12.70;3.78;;;;;;;6.56;100.00;100900.97;10409090;28;20067;-72
2022/05/06 13:21:45;;;;;;;6.50;2.30;;;;;;;7.04;100.00;100998.16;10415657;28;20048;-71
2022/05/06 13:26:47;;;;;;;5.63;2.95;;;;;;;7.64;100.00;101059.16;10410980;28;20552;-72
2022/05/06 13:31:48;;;;;;;5.20;2.63;;;;;;;7.35;100.00;101024.63;10407450;28;20523;-71
2022/05/06 13:36:49;;;;;;;4.95;3.50;;;;;;;7.62;100.00;101050.53;10396054;28;20048;-71
2022/05/06 13:41:50;;;;;;;4.65;2.13;;;;;;;7.64;100.00;101064.47;10415469;28;20048;-71
2022/05/06 13:46:52;;;;;;;5.75;2.85;;;;;;;7.65;100.00;101085.47;10413881;28;20121;-72
2022/05/06 13:51:53;;;;;;;3.90;2.10;;;;;;;7.66;100.00;101078.41;10409748;28;20084;-72
2022/05/06 14:02:13;;;;;;;4.03;2.13;;;;;;;7.23;100.00;101043.19;10414198;28;20053;-72
2022/05/06 14:07:14;;;;;;;4.00;2.13;;;;;;;7.29;100.00;101069.09;10414086;28;20045;-71
2022/05/06 14:12:15;;;;;;;10.02;4.93;;;;;;;7.46;100.00;101099.41;10414006;28;20037;-71
2022/05/06 14:17:17;;;;;;;5.05;3.00;;;;;;;7.29;100.00;101077.03;10413573;28;20045;-73
2022/05/06 14:22:19;;;;;;;6.30;2.45;;;;;;;7.40;100.00;101107.88;10413701;28;20048;-71
2022/05/06 14:27:20;;;;;;;5.40;2.10;;;;;;;7.18;100.00;101078.91;10413364;28;20386;-71
2022/05/06 14:32:22;;;;;;;4.65;2.03;;;;;;;7.06;100.00;101078.97;10413880;28;20037;-73
2022/05/06 14:37:22;;;;;;;5.13;2.35;;;;;;;7.33;100.00;101127.88;10413342;28;20053;-74
2022/05/06 14:42:23;;;;;;;3.08;1.77;;;;;;;7.37;100.00;101123.16;10414945;28;20056;-70
2022/05/06 14:47:24;;;;;;;5.88;2.00;;;;;;;7.29;100.00;101111.41;10411242;28;20064;-71
2022/05/06 14:52:25;;;;;;;4.30;1.83;;;;;;;7.03;100.00;101066.03;10413535;28;20057;-71
2022/05/06 14:57:27;;;;;;;11.23;2.20;;;;;;;7.33;100.00;101125.22;10412288;28;20084;-71
2022/05/06 15:02:28;;;;;;;10.60;5.38;;;;;;;7.31;100.00;101133.25;10412607;28;20114;-71
2022/05/06 15:07:28;;;;;;;17.67;9.65;;;;;;;7.03;100.00;101096.84;10412577;28;20044;-71
2022/05/06 15:12:29;;;;;;;7.10;4.00;;;;;;;7.39;100.00;101130.00;10412211;28;20049;-71
2022/05/06 15:17:30;;;;;;;4.43;2.60;;;;;;;6.48;100.00;101007.19;10411317;28;20057;-71
2022/05/06 15:22:32;;;;;;;3.65;1.70;;;;;;;7.13;100.00;101141.88;10411215;28;20107;-72
2022/05/06 15:27:34;;;;;;;2.50;1.15;;;;;;;7.00;100.00;101139.38;10412734;28;20037;-71
2022/05/06 15:32:34;;;;;;;8.73;1.85;;;;;;;6.73;100.00;101118.69;10412364;28;20551;-73
2022/05/06 15:37:35;;;;;;;2.67;1.50;;;;;;;7.00;100.00;101168.44;10412219;28;20042;-71
2022/05/06 15:42:36;;;;;;;3.58;2.58;;;;;;;6.90;100.00;101134.00;10412046;28;20041;-71
2022/05/06 15:47:37;;;;;;;5.18;1.85;;;;;;;7.05;100.00;101142.50;10411671;28;20068;-72
2022/05/06 15:52:37;;;;;;;5.65;1.98;;;;;;;7.03;100.00;101157.63;10411555;28;20053;-71
2022/05/06 15:57:38;;;;;;;4.70;2.33;;;;;;;7.02;100.00;101150.66;10415590;28;20051;-70
2022/05/06 16:02:39;;;;;;;11.23;2.00;;;;;;;6.99;100.00;101172.06;10411404;28;20128;-71
2022/05/06 16:07:41;;;;;;;3.63;1.58;;;;;;;6.79;100.00;101144.59;10411364;28;20042;-73
2022/05/06 16:12:41;;;;;;;5.15;1.67;;;;;;;5.66;100.00;100953.97;10413680;28;20045;-72
2022/05/06 16:17:43;;;;;;;2.88;1.55;;;;;;;7.05;100.00;101182.13;10416453;28;20554;-72
2022/05/06 16:22:44;;;;;;;4.88;1.70;;;;;;;7.03;100.00;101194.59;10412084;28;20108;-72
2022/05/06 16:27:45;;;;;;;2.25;1.45;;;;;;;7.05;100.00;101175.03;10383181;28;20046;-72
2022/05/06 16:32:47;;;;;;;2.70;1.60;;;;;;;6.20;100.00;101027.06;10374428;28;20042;-72
2022/05/06 16:37:48;;;;;;;4.57;1.45;;;;;;;7.08;100.00;101180.06;10375628;28;20046;-73
2022/05/06 16:42:49;;;;;;;3.13;1.80;;;;;;;6.95;100.00;101163.53;10376570;28;20141;-73
2022/05/06 16:47:50;;;;;;;2.45;1.30;;;;;;;6.86;100.00;101146.63;10377288;28;20552;-75
2022/05/06 16:52:52;;;;;;;2.58;1.48;;;;;;;7.18;100.00;101200.44;10377067;28;20511;-72
2022/05/06 16:57:53;;;;;;;4.25;1.27;;;;;;;7.08;100.00;101209.13;10387852;28;20048;-71
2022/05/06 17:02:54;;;;;;;3.50;1.30;;;;;;;6.34;100.00;101102.44;10412130;28;20437;-73
2022/05/06 17:07:55;;;;;;;3.33;1.80;;;;;;;6.83;100.00;101201.50;10407468;28;20029;-74
2022/05/06 17:12:56;;;;;;;3.03;1.60;;;;;;;6.19;100.00;101101.88;10413035;28;20049;-71
2022/05/06 17:17:56;;;;;;;4.10;1.73;;;;;;;5.33;100.00;100949.56;10406718;28;20049;-72
2022/05/06 17:22:57;;;;;;;4.80;1.95;;;;;;;5.92;100.00;101034.50;10413539;28;20041;-71
2022/05/06 17:27:58;;;;;;;4.55;2.15;;;;;;;6.65;100.00;101156.28;10403412;28;20402;-74
2022/05/06 17:32:59;;;;;;;4.65;1.88;;;;;;;6.27;100.00;101094.19;10382711;28;20041;-76
2022/05/06 17:37:59;;;;;;;8.30;1.80;;;;;;;7.12;100.00;101220.31;10415705;28;20401;-71
2022/05/06 17:43:01;;;;;;;7.50;4.05;;;;;;;7.05;100.00;101187.41;10415510;28;20053;-72
2022/05/06 17:48:02;;;;;;;10.20;5.60;;;;;;;6.92;100.00;101179.63;10386863;28;20033;-72
2022/05/06 17:53:03;;;;;;;10.57;5.10;;;;;;;6.84;100.00;101167.03;10374748;28;20092;-72
2022/05/06 17:58:04;;;;;;;6.55;3.42;;;;;;;6.76;100.00;101172.13;10379332;28;20041;-72
2022/05/06 18:03:05;;;;;;;9.13;5.20;;;;;;;6.94;100.00;101183.00;10383762;28;20054;-73
2022/05/06 18:08:06;;;;;;;10.57;4.28;;;;;;;6.24;100.00;101051.38;10409526;28;20083;-72
2022/05/06 18:13:07;;;;;;;7.05;4.22;;;;;;;7.16;100.00;101195.31;10388809;28;20046;-74
2022/05/06 18:18:08;;;;;;;8.77;5.13;;;;;;;7.16;100.00;101202.41;10373696;28;20038;-72
2022/05/06 18:23:09;;;;;;;5.68;3.08;;;;;;;6.48;100.00;101070.53;10373292;28;20037;-72
2022/05/06 18:28:10;;;;;;;7.72;3.88;;;;;;;6.43;100.00;101056.84;10372684;28;20046;-73
2022/05/06 18:33:20;;;;;;;8.73;4.30;;;;;;;6.43;100.00;101043.66;10372772;28;20038;-73
2022/05/06 18:38:22;;;;;;;7.35;4.50;;;;;;;7.15;100.00;101151.38;10373333;28;20042;-73
2022/05/06 18:43:24;;;;;;;5.70;3.30;;;;;;;7.32;100.00;101176.38;10372839;28;20171;-72
2022/05/06 18:48:24;;;;;;;17.00;10.25;;;;;;;7.37;100.00;101190.06;10372652;28;20057;-73
2022/05/06 18:53:25;;;;;;;12.57;6.57;;;;;;;6.53;100.00;101026.13;10373072;28;20061;-73
2022/05/06 18:58:26;;;;;;;12.73;5.97;;;;;;;5.95;100.00;100920.03;10407133;28;20064;-74
2022/05/06 19:03:27;;;;;;;10.60;6.35;;;;;;;7.51;100.00;101159.84;10412840;28;20052;-72
2022/05/06 19:08:28;;;;;;;5.30;3.08;;;;;;;7.39;100.00;101161.72;10413182;28;20508;-72
2022/05/06 19:13:30;;;;;;;3.90;2.10;;;;;;;7.15;100.00;101126.72;10412349;28;20091;-72
2022/05/06 19:18:31;;;;;;;4.32;2.28;;;;;;;7.41;100.00;101164.22;10412437;28;20045;-72
2022/05/06 19:28:50;;;;;;;4.07;2.63;;;;;;;6.71;100.00;101092.44;10412418;28;20037;-72
2022/05/06 19:33:51;;;;;;;4.43;2.42;;;;;;;6.75;100.00;101107.03;10420121;28;20052;-72
2022/05/06 19:38:54;;;;;;;3.92;2.75;;;;;;;7.19;100.00;101168.63;10420477;28;20083;-73
2022/05/06 19:43:56;;;;;;;8.25;4.68;;;;;;;7.12;100.00;101162.19;10419923;28;20046;-73
2022/05/06 19:48:57;;;;;;;3.70;2.50;;;;;;;7.20;100.00;101169.47;10420225;28;20040;-73
2022/05/06 19:53:59;;;;;;;3.83;2.78;;;;;;;7.04;100.00;101146.09;10419215;28;20068;-73
2022/05/06 19:59:01;;;;;;;4.35;2.58;;;;;;;6.47;100.00;101036.34;10418308;28;20132;-73
2022/05/06 20:04:02;;;;;;;6.85;2.17;;;;;;;7.08;100.00;101136.97;10403173;28;20046;-72
2022/05/06 20:09:04;;;;;;;4.45;2.00;;;;;;;7.09;100.00;101149.22;10408162;28;20128;-73
2022/05/06 20:14:04;;;;;;;4.57;2.40;;;;;;;6.84;100.00;101113.38;10419472;28;20068;-73
2022/05/06 20:19:06;;;;;;;5.75;2.45;;;;;;;6.95;100.00;101126.56;10388469;28;20041;-73
2022/05/06 20:24:07;;;;;;;8.18;3.78;;;;;;;7.33;100.00;101172.78;10378000;28;20034;-73
2022/05/06 20:29:08;;;;;;;5.72;2.63;;;;;;;6.84;100.00;101079.88;10376114;28;20050;-73
2022/05/06 20:34:10;;;;;;;5.10;2.50;;;;;;;7.23;100.00;101124.28;10377916;28;20068;-73
2022/05/06 20:39:11;;;;;;;4.55;2.47;;;;;;;7.19;100.00;101092.00;10375959;28;20049;-73
2022/05/06 20:44:13;;;;;;;3.22;2.25;;;;;;;7.56;100.00;101155.00;10376647;28;20057;-73
2022/05/06 20:49:14;;;;;;;8.93;2.60;;;;;;;7.36;100.00;101124.97;10376371;28;20045;-72
2022/05/06 20:54:15;;;;;;;4.00;2.20;;;;;;;7.25;100.00;101106.50;10375920;28;20070;-73
2022/05/06 20:59:22;;;;;;;5.03;2.00;;;;;;;7.42;100.00;101113.88;10376442;28;20088;-73
2022/05/06 21:04:26;;;;;;;3.45;1.80;;;;;;;7.35;100.00;101112.69;10375923;28;20125;-72
2022/05/06 21:14:46;;;;;;;9.57;3.88;;;;;;;6.96;100.00;101021.75;10375919;28;20128;-73
2022/05/06 21:19:51;;;;;;;10.15;3.30;;;;;;;7.26;100.00;101037.66;10375886;28;20053;-73
2022/05/06 21:24:52;;;;;;;4.72;2.97;;;;;;;7.58;100.00;101076.38;10375734;28;20048;-73
2022/05/06 21:29:52;;;;;;;6.70;3.47;;;;;;;7.23;100.00;101024.69;10375272;28;20041;-74
2022/05/06 21:34:53;;;;;;;5.18;2.65;;;;;;;7.77;100.00;101097.63;10375182;28;20056;-73
2022/05/06 21:39:54;;;;;;;5.45;2.10;;;;;;;6.84;100.00;100945.19;10374374;28;20038;-73
2022/05/06 21:44:55;;;;;;;7.82;2.20;;;;;;;7.75;100.00;101106.69;10375421;28;20068;-73
2022/05/06 21:49:56;;;;;;;5.22;2.00;;;;;;;6.72;100.00;100948.88;10375678;28;20095;-73
2022/05/06 21:54:57;;;;;;;6.53;2.00;;;;;;;7.68;100.00;101113.47;10374052;28;20564;-74
2022/05/06 21:59:59;;;;;;;5.38;2.38;;;;;;;7.24;100.00;101047.53;10374759;28;20132;-74
2022/05/06 22:04:59;;;;;;;8.48;2.25;;;;;;;7.47;100.00;101085.22;10373135;28;20478;-74
2022/05/06 22:10:00;;;;;;;4.75;2.15;;;;;;;6.70;100.00;100949.97;10373758;28;20045;-75
2022/05/06 22:15:01;;;;;;;8.23;2.33;;;;;;;7.69;100.00;101104.56;10373616;28;20049;-74
2022/05/06 22:20:02;;;;;;;8.68;2.50;;;;;;;7.81;100.00;101113.25;10373609;28;20045;-74
2022/05/06 22:25:04;;;;;;;7.25;3.40;;;;;;;7.28;100.00;101004.00;10374031;28;20042;-74
2022/05/06 22:30:07;;;;;;;4.43;2.65;;;;;;;7.71;100.00;101066.44;10372630;28;20056;-74
2022/05/06 22:35:08;;;;;;;6.80;2.75;;;;;;;7.22;100.00;100993.13;10373347;28;20042;-74
2022/05/06 22:40:09;;;;;;;12.30;3.15;;;;;;;7.87;100.00;101105.66;10373521;28;20049;-74
2022/05/06 22:50:33;;;;;;;6.03;3.13;;;;;;;7.62;100.00;101059.28;10372571;28;20045;-74
2022/05/06 22:55:34;;;;;;;6.30;2.85;;;;;;;7.66;100.00;101047.50;10372965;28;20061;-74
2022/05/06 23:00:35;;;;;;;5.22;2.55;;;;;;;6.81;100.00;100891.81;10371978;28;20046;-74
2022/05/06 23:05:36;;;;;;;6.20;2.00;;;;;;;7.95;100.00;101086.44;10372909;28;20091;-74
2022/05/06 23:10:37;;;;;;;5.00;2.03;;;;;;;7.13;100.00;100949.00;10371094;28;20069;-74
2022/05/06 23:15:38;;;;;;;6.30;2.08;;;;;;;7.70;100.00;101072.69;10371722;28;20046;-74
2022/05/06 23:20:39;;;;;;;8.82;1.98;;;;;;;7.21;100.00;101018.72;10371670;28;20044;-73
2022/05/06 23:25:39;;;;;;;7.18;2.10;;;;;;;7.39;100.00;101066.56;10373043;28;20038;-74
2022/05/06 23:30:40;;;;;;;5.60;2.10;;;;;;;6.84;100.00;100970.78;10371327;28;20559;-74
2022/05/06 23:41:01;;;;;;;5.90;2.08;;;;;;;7.24;100.00;101034.31;10371202;28;20045;-73
2022/05/06 23:46:02;;;;;;;8.57;2.55;;;;;;;7.08;100.00;101007.50;10371168;28;20049;-74
2022/05/06 23:51:03;;;;;;;5.13;2.15;;;;;;;7.05;100.00;101008.59;10371535;28;20049;-75
2022/05/06 23:56:04;;;;;;;6.95;2.03;;;;;;;7.25;100.00;101020.13;10371003;28;20069;-74
